Latest Coastal Weather Observations for Ceduna

IDS60701

Issued at 11:31 pm CST Tuesday 1 September 2015 (issued every 10 minutes, with the page automatically refreshed every 10 minutes)

About coastal observations | Map of coastal stations | Coastal observations for SA | Marine services | Other Formats
Station Details ID: 018012 Name: CEDUNA AMO Lat: -32.13 Lon: 133.70 Height: 15.3 m
Data from the previous 72 hours. | See also: Recent months at Ceduna
Date/Time
CST
Temp

°C
Wind Pressure Rain
since 9am
mm
Weather Cloud Vis
km
Sea
Height
m
Swell
Dir
 
Speed
knots
Gust
knots
hPa Trend Height
m
Period
s
Dir
01/11:30pm 9.8 NW 10 14 1008.8 - 10.0 - - 10 - - - -
01/11:00pm 10.4 NW 11 15 1008.9 - 10.0 - - 10 - - - -
01/10:30pm 10.7 NW 11 16 1008.9 - 10.0 - - 10 - - - -
01/10:00pm 11.8 WNW 14 19 1008.9 - 10.0 - - 10 - - - -
01/09:30pm 10.2 NNW 8 12 1008.7 - 10.0 - - 10 - - - -
01/09:00pm 12.2 WNW 12 18 1008.4 R 10.0 - - 10 - - - -
01/08:30pm 12.3 NW 10 13 1008.0 - 10.0 - Partly cloudy 10 - - - -
01/08:00pm 12.9 WNW 12 18 1007.5 - 10.0 - Partly cloudy 10 - - - -
01/07:30pm 13.1 WNW 14 21 1007.1 - 10.0 - - 10 - - - -
01/07:00pm 13.4 W 16 24 1006.4 - 10.0 - Partly cloudy 10 - - - -
01/06:32pm 13.7 W 18 28 1006.1 - 10.0 - Partly cloudy 10 - - - -
01/06:30pm 13.6 W 19 28 1006.1 - 10.0 - Partly cloudy 10 - - - -
01/06:05pm 13.9 W 17 27 1005.6 - 10.0 - Partly cloudy 10 - - - -
01/06:00pm 14.2 W 19 27 1005.6 R 10.0 - Cloudy 10 - - - -
01/05:30pm 14.5 W 22 33 1005.0 - 10.0 - Cloudy 10 - - - -
01/05:25pm 14.6 W 20 32 1004.9 - 10.0 - Cloudy 10 - - - -
01/05:00pm 14.8 W 20 29 1004.6 - 10.0 - Partly cloudy 10 - - - -
01/04:40pm 14.9 W 20 30 1004.3 - 10.0 - Partly cloudy 10 - - - -
01/04:30pm 15.0 W 20 27 1003.9 - 10.0 - Partly cloudy 10 - - - -
01/04:18pm 14.8 W 18 25 1003.4 - 10.0 - Partly cloudy 10 - - - -
01/04:00pm 14.0 W 25 41 1003.3 - 9.8 - Partly cloudy 0.4 - - - -
01/03:56pm 14.2 WNW 17 41 1003.7 - 6.2 - Partly cloudy 2 - - - -
01/03:54pm 15.5 NW 13 33 1003.5 - 4.0 - Partly cloudy 5 - - - -
01/03:53pm 16.5 NW 12 33 1003.4 - 3.2 - Partly cloudy 10 - - - -
01/03:30pm 20.6 WNW 7 10 1001.8 - 2.8 - Partly cloudy 10 - - - -
01/03:00pm 20.8 NW 5 7 1002.7 F 2.4 - Mostly cloudy 10 - - - -
01/02:30pm 21.6 NW 10 13 1003.3 - 2.4 - Partly cloudy 10 - - - -
01/02:00pm 21.3 NNW 9 12 1003.9 - 2.4 - Partly cloudy 10 - - - -
01/01:30pm 20.8 WNW 9 12 1004.6 - 2.4 - Partly cloudy 10 - - - -
01/01:00pm 18.9 WNW 7 10 1005.5 - 2.4 - Partly cloudy 10 - - - -
01/12:30pm 16.9 NW 7 9 1006.3 - 2.4 - Partly cloudy 10 - - - -
01/12:00pm 15.3 WNW 6 9 1007.1 S 2.4 Recent precip. Partly cloudy 10 - - - -
01/11:59am 15.2 WNW 7 9 1007.1 - 2.4 - Partly cloudy 10 - - - -
01/11:44am 13.9 WNW 11 15 1007.6 - 2.2 - Partly cloudy 5 - - - -
01/11:30am 14.9 W 10 13 1007.8 - 0.2 - Cloudy 10 - - - -
01/11:00am 15.2 WSW 12 18 1007.9 - 0.0 - Partly cloudy 10 - - - -
01/10:30am 17.7 N 15 23 1007.6 - 0.0 - Partly cloudy 10 - - - -
01/10:00am 18.8 N 15 22 1007.5 - 0.0 - Partly cloudy 10 - - - -
01/09:30am 20.1 NNE 17 22 1007.7 - 0.0 - Partly cloudy 10 - - - -
01/09:00am 18.1 NNE 15 20 1007.7 F 1.6 Rain - 10 - - - -
01/08:30am 16.7 NNE 11 13 1008.0 - 1.4 - Partly cloudy 10 - - - -
01/08:00am 15.4 NE 5 8 1008.1 - 1.4 - Partly cloudy 10 - - - -
01/07:30am 14.7 NNE 9 11 1008.3 - 1.4 - Partly cloudy 10 - - - -
01/07:00am 14.1 N 9 13 1008.3 - 1.4 - Partly cloudy 10 - - - -
01/06:30am 13.9 NNE 7 9 1008.3 - 1.4 - Partly cloudy 10 - - - -
01/06:00am 13.1 N 7 11 1008.4 F 1.4 Recent precip. Cloudy 10 - - - -
01/05:30am 15.6 NNE 16 22 1007.8 - 0.6 - Partly cloudy 10 - - - -
01/05:00am 15.3 NNE 15 20 1007.5 - 0.4 - - 10 - - - -
01/04:30am 14.5 NNE 12 17 1007.3 - 0.4 - - 10 - - - -
01/04:00am 12.5 NE 11 13 1007.8 - 0.4 - - 10 - - - -
01/03:30am 12.5 NE 10 12 1008.1 - 0.4 - - 10 - - - -
01/03:00am 11.8 ENE 10 12 1009.0 F 0.4 - - 10 - - - -
01/02:30am 12.1 ENE 10 12 1009.7 - 0.4 - - 10 - - - -
01/02:00am 11.9 ENE 9 11 1010.8 - 0.4 - - 10 - - - -
01/01:30am 11.8 ENE 9 10 1011.3 - 0.4 - Partly cloudy 10 - - - -
01/01:00am 12.6 E 9 11 1011.9 - 0.4 - Partly cloudy 10 - - - -
01/12:34am 12.7 E 8 10 1012.6 - 0.4 - Partly cloudy 10 - - - -
01/12:30am 12.7 E 7 9 1012.7 - 0.4 - Partly cloudy 10 - - - -
01/12:24am 12.6 ESE 8 9 1012.8 - 0.4 - Partly cloudy 5 - - - -
01/12:00am 12.6 NW 5 7 1013.9 S 0.2 - Cloudy 0.3 - - - -
 
Date/Time
CST
Temp

°C
Wind Pressure Rain
since 9am
mm
Weather Cloud Vis
km
Sea
Height
m
Swell
Dir
 
Speed
knots
Gust
knots
hPa Trend Height
m
Period
s
Dir
31/11:30pm 12.4 ENE 7 9 1013.4 - 0.2 - Cloudy 0.1 - - - -
31/11:03pm 11.7 ENE 6 7 1013.8 - 0.2 - Partly cloudy 0.3 - - - -
31/11:00pm 11.6 ENE 6 7 1013.9 - 0.2 - Partly cloudy 0.3 - - - -
31/10:30pm 11.1 NE 4 5 1014.3 - 0.2 - Partly cloudy 2 - - - -
31/10:00pm 10.8 E 3 5 1014.3 - 0.2 - Partly cloudy 0.7 - - - -
31/09:30pm 11.8 NE 4 6 1014.4 - 0.2 - - 4 - - - -
31/09:22pm 12.1 NE 3 4 1014.5 - 0.2 - - 5 - - - -
31/09:00pm 13.0 SE 6 8 1014.3 F 0.2 - - 9 - - - -
31/08:30pm 13.7 S 6 8 1014.5 - 0.2 - Partly cloudy 10 - - - -
31/08:29pm 13.7 S 6 8 1014.5 - 0.2 - Partly cloudy 10 - - - -
31/08:00pm 14.1 S 6 9 1014.6 - 0.2 - Partly cloudy 10 - - - -
31/07:53pm 13.9 S 6 7 1014.6 - 0.2 - Partly cloudy 9 - - - -
31/07:30pm 13.7 S 7 8 1014.5 - 0.2 - - 9 - - - -
31/07:00pm 14.3 S 7 8 1014.4 - 0.2 - - 10 - - - -
31/06:30pm 15.2 SSE 7 9 1014.5 - 0.2 - - 9 - - - -
31/06:00pm 15.9 SE 5 8 1014.8 F 0.2 Recent precip. Cloudy 10 - - - -
31/05:30pm 15.8 SSW 7 10 1014.4 - 0.2 - Partly cloudy 10 - - - -
31/05:00pm 16.4 SW 9 11 1014.1 - 0.0 - Partly cloudy 10 - - - -
31/04:30pm 17.6 SSW 10 13 1014.2 - 0.0 - - 10 - - - -
31/04:00pm 17.8 SW 11 14 1014.4 - 0.0 - Partly cloudy 10 - - - -
31/03:30pm 20.1 SW 11 13 1014.5 - 0.0 - Partly cloudy 10 - - - -
31/03:00pm 20.3 SW 12 16 1014.6 F 0.0 - Cloudy 10 - - - -
31/02:30pm 20.3 SW 12 15 1015.0 - 0.0 - Partly cloudy 10 - - - -
31/02:00pm 21.0 SW 11 12 1015.2 - 0.0 - - 10 - - - -
31/01:30pm 22.3 SW 8 11 1015.5 - 0.0 - Partly cloudy 10 - - - -
31/01:00pm 21.7 W 8 9 1016.2 - 0.0 - Partly cloudy 10 - - - -
31/12:30pm 22.0 W 7 10 1016.7 - 0.0 - Partly cloudy 10 - - - -
31/12:00pm 21.9 W 7 9 1017.0 F 0.0 - - 10 - - - -
31/11:30am 21.5 WNW 8 11 1017.4 - 0.0 - - 10 - - - -
31/11:00am 21.1 WNW 9 12 1017.8 - 0.0 - - 10 - - - -
31/10:30am 20.2 NW 9 12 1018.2 - 0.0 - - 10 - - - -
31/10:00am 19.2 NW 10 13 1018.3 - 0.0 - - 10 - - - -
31/09:30am 18.4 NNW 8 11 1018.2 - 0.0 - - 10 - - - -
31/09:00am 16.8 NNW 9 11 1018.3 S 0.0 - - 10 - - - -
31/08:30am 15.4 N 7 9 1018.2 - 0.0 - - 10 - - - -
31/08:00am 13.7 N 7 9 1018.1 - 0.0 - - 10 - - - -
31/07:30am 10.7 N 7 9 1017.7 - 0.0 - - 10 - - - -
31/07:00am 10.5 N 6 7 1017.5 - 0.0 - Partly cloudy 10 - - - -
31/06:30am 10.4 NNE 6 7 1017.0 - 0.0 - Cloudy 10 - - - -
31/06:00am 9.8 NNE 6 7 1017.0 F 0.0 - Partly cloudy 10 - - - -
31/05:30am 9.7 NNE 7 9 1017.2 - 0.0 - Partly cloudy 10 - - - -
31/05:00am 9.9 NE 8 9 1017.1 - 0.0 - - 10 - - - -
31/04:30am 9.4 NNE 6 8 1017.0 - 0.0 - - 10 - - - -
31/04:00am 10.1 NE 8 9 1017.0 - 0.0 - - 10 - - - -
31/03:30am 10.4 NE 9 10 1017.0 - 0.0 - - 10 - - - -
31/03:00am 11.1 NE 11 12 1017.1 F 0.0 - - 10 - - - -
31/02:30am 10.5 NE 9 10 1017.5 - 0.0 - - 10 - - - -
31/02:00am 11.4 NE 9 11 1017.8 - 0.0 - - 10 - - - -
31/01:30am 10.8 NE 8 9 1018.0 - 0.0 - - 10 - - - -
31/01:00am 11.2 NE 8 10 1018.1 - 0.0 - - 10 - - - -
31/12:30am 10.3 ENE 8 10 1018.2 - 0.0 - - 10 - - - -
31/12:00am 12.1 NE 10 12 1018.1 F 0.0 - Cloudy 10 - - - -
 
Date/Time
CST
Temp

°C
Wind Pressure Rain
since 9am
mm
Weather Cloud Vis
km
Sea
Height
m
Swell
Dir
 
Speed
knots
Gust
knots
hPa Trend Height
m
Period
s
Dir
30/11:30pm 11.5 NE 9 11 1018.3 - 0.0 - - 10 - - - -
30/11:00pm 10.2 ENE 9 10 1018.7 - 0.0 - - 10 - - - -
30/10:30pm 10.1 ENE 9 11 1019.0 - 0.0 - - 10 - - - -
30/10:00pm 10.5 ENE 10 11 1019.0 - 0.0 - - 10 - - - -
30/09:30pm 11.3 ENE 9 11 1019.1 - 0.0 - - 10 - - - -
30/09:00pm 12.5 ENE 9 11 1019.1 F 0.0 - Mostly cloudy 10 - - - -
30/08:30pm 11.8 ENE 10 11 1019.0 - 0.0 - - 10 - - - -
30/08:00pm 12.4 ENE 11 11 1018.8 - 0.0 - - 10 - - - -
30/07:30pm 12.4 ENE 10 11 1018.7 - 0.0 - - 10 - - - -
30/07:00pm 12.8 ENE 8 9 1018.7 - 0.0 - - 10 - - - -
30/06:30pm 14.7 ENE 9 9 1018.3 - 0.0 - - 10 - - - -
30/06:00pm 17.7 NE 7 8 1018.2 F 0.0 - - 10 - - - -
30/05:30pm 21.1 NE 9 11 1017.8 - 0.0 - - 10 - - - -
30/05:00pm 22.1 NE 10 14 1017.7 - 0.0 - - 10 - - - -
30/04:30pm 22.4 NE 11 14 1017.6 - 0.0 - - 10 - - - -
30/04:00pm 22.5 NE 10 14 1017.8 - 0.0 - - 10 - - - -
30/03:30pm 22.6 NE 11 15 1018.0 - 0.0 - - 10 - - - -
30/03:00pm 22.8 NE 13 17 1018.3 F 0.0 - Mostly cloudy 10 - - - -
30/02:30pm 22.3 NE 13 18 1018.7 - 0.0 - - 10 - - - -
30/02:00pm 21.8 NNE 12 19 1019.3 - 0.0 - - 10 - - - -
30/01:30pm 21.1 NNE 14 19 1020.0 - 0.0 - - 10 - - - -
30/01:00pm 20.8 N 13 20 1020.8 - 0.0 - - 10 - - - -
30/12:30pm 20.3 NNE 13 19 1021.3 - 0.0 - - 10 - - - -
30/12:00pm 19.6 NNE 14 20 1021.8 F 0.0 - - 10 - - - -
30/11:30am 18.9 NE 16 20 1022.2 - 0.0 - - 10 - - - -
30/11:00am 18.3 NE 16 21 1022.7 - 0.0 - - 10 - - - -
30/10:30am 17.0 NE 16 20 1023.1 - 0.0 - - 10 - - - -
30/10:00am 15.8 NE 19 23 1023.5 - 0.0 - - 10 - - - -
30/09:30am 14.4 NE 13 16 1023.6 - 0.0 - - 10 - - - -
30/09:00am 12.0 NE 12 16 1023.8 F 0.0 - Mostly clear 10 - - - -
30/08:30am 9.4 NE 10 12 1023.5 - 0.0 - - 10 - - - -
30/08:00am 7.5 NE 9 11 1023.5 - 0.0 - - 10 - - - -
30/07:30am 5.5 ENE 9 11 1023.1 - 0.0 - - 10 - - - -
30/07:00am 3.5 ENE 9 10 1023.0 - 0.0 - - 10 - - - -
30/06:30am 3.4 ENE 8 9 1022.9 - 0.0 - - 10 - - - -
30/06:00am 3.8 NE 8 9 1022.8 R 0.0 - - 10 - - - -
30/05:30am 4.6 ENE 9 10 1022.3 - 0.0 - - 10 - - - -
30/05:00am 4.4 ENE 10 11 1021.9 - 0.0 - - 10 - - - -
30/04:30am 4.4 ENE 10 11 1021.9 - 0.0 - - 10 - - - -
30/04:00am 4.7 ENE 9 10 1022.0 - 0.0 - - 10 - - - -
30/03:30am 4.8 ENE 9 10 1022.2 - 0.0 - - 10 - - - -
30/03:00am 5.5 ENE 9 10 1022.5 F 0.0 - - 10 - - - -
30/02:30am 6.0 ENE 9 11 1022.8 - 0.0 - - 10 - - - -
30/02:00am 5.0 ENE 9 11 1023.0 - 0.0 - - 10 - - - -
30/01:30am 6.2 ENE 10 11 1023.3 - 0.0 - - 10 - - - -
30/01:00am 6.0 ENE 10 11 1023.4 - 0.0 - - 10 - - - -
30/12:30am 5.8 ENE 7 8 1023.8 - 0.0 - - 10 - - - -
30/12:00am 5.9 NE 8 9 1024.1 F 0.0 - - 10 - - - -

Other Formats:

Comma delimited format used in spreadsheet applications
http://www.bom.gov.au/fwo/IDS60701/IDS60701.94653.axf

JavaScript Object Notation format (JSON) in row-major order
http://www.bom.gov.au/fwo/IDS60701/IDS60701.94653.json